Atoka, Tennessee
Current Conditions -  °F | °C
As of 12:50 PM on Tuesday 27 Jan 2015 (Local Time) from KNQA Reporting Station
Scattered Clouds Scattered Clouds  
Wind Chill: 54°   Ceiling: Unl
Heat Index: 54°   Visibility: 10mi
Dew Point: 37°   Wind: 10mph
Humidity: 54%   Direction: 340°NNW
Pressure: 30.12"   Gusts: NA
Location:  35.44°N, 89.78°W
Report Text: KNQA 271850Z 34009KT 10SM SCT045 12/03 A3012
Loading
Personal Weather Stations






























Interactive Weather Map New forecast layout! Learn more

10-Day Weather Forecast

Advertisements
Track Severe Weather on mobile